Terminal Aerodrome Forecast
Issued by NWS Cleveland, OH

Home | Current Version | Previous Version | Graphics & Text | Print | Product List | Glossary Off
Versions: 1 2 3 4 5 6 7 8 9 10 11 12 13 14 15 16 17 18 19 20 21 22

793
FTUS41 KCLE 172335
TAFTOL
TAF
KTOL 172335Z 1800/1824 22012KT P6SM BKN250
     FM180700 23008KT P6SM SCT030
     FM181000 26008KT 6SM BR BKN030
     FM181400 26012G20KT P6SM BKN050
     FM182300 28010KT P6SM SCT120=

USA.gov is the U.S. government's official web portal to all federal, state and local government web resources and services.